Flight Track Log - Related Links

Times and Time Zones

All times are in EDT time to prevent confusion due to time zone crossing. See the FSR411 flight status page for this flight to view local times or setup timezone preferences in your user account.

Time Position Orientation Groundspeed Altitude Reporting Facility
EDT Latitude Longitude Course Direction KTS MPH feet Rate Location/Type
Thu 02:50:42 PM 42.2578 -89.0297 85° East 248 285 4,100  Level Chicago Center
Thu 02:51:44 PM 42.3039 -88.9539 51° Northeast 278 320 7,200 3,145 Climbing Chicago Center
Thu 02:52:46 PM 42.3039 -88.8378 90° East 293 337 10,600 2,903 Climbing Chicago Center
Thu 02:53:48 PM 42.3047 -88.7064 89° East 342 394 13,200 2,903 Climbing Chicago Center
Thu 02:54:50 PM 42.3089 -88.5569 88° East 395 455 16,600 3,097 Climbing Chicago Center
Thu 02:55:00 PM 42.2340 -88.4413 85° East  Level Estimated
Thu 02:55:52 PM 42.3311 -88.4047 79° East 408 470 19,600  Level Chicago Center
Thu 02:56:54 PM 42.3533 -88.2142 81° East 427 491 22,800 2,758 Climbing Chicago Center
Thu 02:57:56 PM 42.3742 -88.0506 80° East 439 505 25,300 1,984 Climbing Chicago Center
Thu 02:58:58 PM 42.3925 -87.8806 82° East 451 519 26,900 823 Climbing Chicago Center
Thu 03:00:00 PM 42.4142 -87.7017 81° East 475 547 27,000 48 Climbing Chicago Center
Thu 03:01:03 PM 42.4333 -87.5197 82° East 486 559 27,000  Level Chicago Center
Thu 03:02:05 PM 42.4542 -87.3411 81° East 485 558 27,000  Level Chicago Center
Thu 03:03:07 PM 42.4778 -87.1250 82° East 485 558 27,000  Level Chicago Center
Thu 03:04:09 PM 42.4978 -86.9469 81° East 483 556 27,000  Level Chicago Center
Thu 03:05:11 PM 42.5100 -86.7658 85° East 484 557 27,000  Level Chicago Center
Thu 03:06:13 PM 42.5061 -86.5906 92° East 489 563 27,000  Level Chicago Center
Thu 03:07:15 PM 42.5011 -86.3717 92° East 489 563 27,000  Level Chicago Center
Thu 03:08:17 PM 42.4989 -86.1917 91° East 486 559 27,000 -435 Level Chicago Center
Thu 03:09:19 PM 42.4978 -86.0075 90° East 491 565 26,100 -1,161 Descending Chicago Center
Thu 03:10:21 PM 42.4975 -85.8286 90° East 483 556 24,600 -1,355 Descending Chicago Center
Thu 03:11:23 PM 42.5047 -85.6561 87° East 472 543 23,300 -1,452 Descending Chicago Center
Thu 03:12:25 PM 42.5500 -85.4581 73° East 465 535 21,600 -1,104 Descending Chicago Center
Thu 03:13:28 PM 42.5869 -85.2961 73° East 457 526 21,000 -288 Descending Chicago Center
Thu 03:14:30 PM 42.6228 -85.1353 73° East 451 519 21,000  Level Chicago Center
Thu 03:15:32 PM 42.6575 -84.9739 74° East 447 514 21,000 -145 Level Chicago Center
Thu 03:16:34 PM 42.6925 -84.8131 73° East 447 514 20,700 -1,403 Descending Chicago Center
Thu 03:17:36 PM 42.7197 -84.6208 79° East 439 505 18,100 -2,419 Descending Chicago Center
Thu 03:18:38 PM 42.7153 -84.4575 92° East 438 504 15,700 -2,432 Descending Chicago Center
Thu 03:19:27 PM 42.7119 -84.3275 92° East 418 481 13,600 -2,791 Descending Cleveland Center
Thu 03:20:04 PM 42.7089 -84.2314 92° East 405 466 11,700 -2,423 Descending Cleveland Center
Thu 03:21:11 PM 42.7111 -84.0872 89° East 329 379 9,400 -1,781 Descending Cleveland Center
Thu 03:22:12 PM 42.7086 -83.9683 92° East 298 343 7,900 -1,686 Descending Cleveland Center
Thu 03:23:12 PM 42.7117 -83.8611 88° East 285 328 6,000 -1,388 Descending Cleveland Center
Thu 03:24:13 PM 42.7167 -83.7511 86° East 271 312 5,100 -492 Descending Cleveland Center
Thu 03:25:14 PM 42.6942 -83.6569 108° East 281 323 5,000 -49 Descending Cleveland Center
Thu 03:26:15 PM 42.6592 -83.5619 117° Southeast 281 323 5,000  Level Cleveland Center
Thu 03:27:16 PM 42.6242 -83.4672 117° Southeast 275 316 5,000  Level Cleveland Center
Thu 03:28:17 PM 42.5931 -83.3753 115° Southeast 270 311 5,000  Level Cleveland Center
Thu 03:29:18 PM 42.5619 -83.2839 115° Southeast 271 312 5,000 -328 Level Cleveland Center
Thu 03:30:25 PM 42.5247 -83.1753 115° Southeast 260 299 4,300 -469 Descending Cleveland Center
Thu 03:31:26 PM 42.4956 -83.0867 114° Southeast 240 276 4,000 -939 Descending Cleveland Center
Thu 03:32:20 PM 42.4592 -83.0261 129° Southeast 224 258 2,500 -992 Descending Cleveland Center
Thu 03:33:33 PM 42.4192 -82.9514 126° Southeast 178 205 1,900 -422 Descending Cleveland Center
Thu 03:34:28 PM 42.3858 -82.9531 182° South 160 184 1,600 -327 Descending Cleveland Center

Login

Don't have an account? Register now (free) for customized features, flight alerts, and more!